createdAt,value
2022-10-11T00:00:31.826Z,91
2022-10-11T00:01:31.867Z,91
2022-10-11T00:02:31.777Z,91
2022-10-11T00:03:31.837Z,91
2022-10-11T00:04:31.813Z,91
2022-10-11T00:05:31.826Z,91
2022-10-11T00:06:31.809Z,91
2022-10-11T00:07:31.810Z,91
2022-10-11T00:08:31.815Z,91
2022-10-11T00:09:31.829Z,91
2022-10-11T00:10:31.799Z,91
2022-10-11T00:11:31.891Z,91
2022-10-11T00:12:31.821Z,91
2022-10-11T00:13:31.823Z,91
2022-10-11T00:14:31.797Z,91
2022-10-11T00:15:31.950Z,91
2022-10-11T00:16:31.814Z,91
2022-10-11T00:17:31.822Z,91
2022-10-11T00:18:31.816Z,91
2022-10-11T00:19:31.833Z,91
2022-10-11T00:20:31.855Z,91
2022-10-11T00:21:31.814Z,91
2022-10-11T00:22:31.798Z,91
2022-10-11T00:23:31.824Z,91
2022-10-11T00:24:31.857Z,91
2022-10-11T00:25:31.816Z,91
2022-10-11T00:26:31.798Z,91
2022-10-11T00:27:31.801Z,92
2022-10-11T00:28:31.910Z,92
2022-10-11T00:29:31.803Z,92
2022-10-11T00:30:31.803Z,92
2022-10-11T00:31:35.531Z,92
2022-10-11T00:32:31.817Z,92
2022-10-11T00:33:31.867Z,92
2022-10-11T00:34:31.783Z,92
2022-10-11T00:35:31.803Z,92
2022-10-11T00:36:31.992Z,92
2022-10-11T00:37:31.843Z,93
2022-10-11T00:38:32.183Z,93
2022-10-11T00:39:31.785Z,93
2022-10-11T00:40:31.880Z,93
2022-10-11T00:41:31.988Z,93
2022-10-11T00:42:31.784Z,93
2022-10-11T00:43:31.802Z,93
2022-10-11T00:44:31.887Z,93
2022-10-11T00:45:31.829Z,93
2022-10-11T00:46:31.782Z,93
2022-10-11T00:47:31.843Z,93
2022-10-11T00:48:31.836Z,93
2022-10-11T00:49:31.913Z,93
2022-10-11T00:50:31.816Z,94
2022-10-11T00:51:32.668Z,94
2022-10-11T00:52:31.792Z,94
2022-10-11T00:53:31.760Z,94
2022-10-11T00:54:31.828Z,94
2022-10-11T00:55:31.885Z,94
2022-10-11T00:56:31.793Z,94
2022-10-11T00:57:31.833Z,94
2022-10-11T00:58:31.807Z,94
2022-10-11T00:59:31.845Z,94
2022-10-11T01:00:31.806Z,94
2022-10-11T01:01:31.864Z,94
2022-10-11T01:02:31.812Z,94
2022-10-11T01:03:31.843Z,94
2022-10-11T01:04:31.784Z,94
2022-10-11T01:05:31.858Z,94
2022-10-11T01:06:31.819Z,94
2022-10-11T01:07:31.838Z,94
2022-10-11T01:08:31.765Z,93
2022-10-11T01:09:31.860Z,93
2022-10-11T01:10:31.829Z,94
2022-10-11T01:11:31.803Z,93
2022-10-11T01:12:31.789Z,93
2022-10-11T01:13:31.903Z,93
2022-10-11T01:14:31.808Z,93
2022-10-11T01:15:31.846Z,93
2022-10-11T01:16:31.829Z,93
2022-10-11T01:17:31.891Z,93
2022-10-11T01:18:31.858Z,93
2022-10-11T01:19:31.797Z,93
2022-10-11T01:20:31.814Z,93
2022-10-11T01:21:31.822Z,93
2022-10-11T01:22:31.804Z,93
2022-10-11T01:23:31.808Z,93
2022-10-11T01:24:31.819Z,93
2022-10-11T01:25:31.835Z,93
2022-10-11T01:26:31.815Z,93
2022-10-11T01:27:31.798Z,93
2022-10-11T01:28:39.361Z,93
2022-10-11T01:29:31.967Z,93
2022-10-11T01:30:31.888Z,93
2022-10-11T01:31:31.833Z,93
2022-10-11T01:32:31.811Z,93
2022-10-11T01:33:31.814Z,93
2022-10-11T01:34:31.802Z,93
2022-10-11T01:35:31.922Z,92
2022-10-11T01:36:31.788Z,93
2022-10-11T01:37:31.823Z,92
2022-10-11T01:38:31.813Z,92
2022-10-11T01:39:31.819Z,93
2022-10-11T01:40:32.021Z,93
2022-10-11T01:41:31.983Z,93
2022-10-11T01:42:31.971Z,93
2022-10-11T01:43:32.008Z,93
2022-10-11T01:44:31.945Z,93
2022-10-11T01:45:32.029Z,93
2022-10-11T01:46:31.954Z,93
2022-10-11T01:47:31.891Z,93
2022-10-11T01:48:31.946Z,93
2022-10-11T01:49:31.796Z,92
2022-10-11T01:50:31.789Z,92
2022-10-11T01:51:31.803Z,92
2022-10-11T01:52:31.795Z,92
2022-10-11T01:53:31.734Z,92
2022-10-11T01:54:44.354Z,92
2022-10-11T01:55:31.842Z,92
2022-10-11T01:56:31.804Z,92
2022-10-11T01:57:31.810Z,92
2022-10-11T01:58:31.816Z,92
2022-10-11T01:59:31.790Z,92
2022-10-11T02:00:31.826Z,92
2022-10-11T02:01:31.953Z,92
2022-10-11T02:02:31.819Z,92
2022-10-11T02:03:31.787Z,92
2022-10-11T02:04:31.883Z,92
2022-10-11T02:05:31.812Z,92
2022-10-11T02:06:31.821Z,92
2022-10-11T02:07:31.831Z,92
2022-10-11T02:08:31.850Z,92
2022-10-11T02:09:31.817Z,92
2022-10-11T02:10:31.820Z,92
2022-10-11T02:11:31.782Z,91
2022-10-11T02:12:31.815Z,91
2022-10-11T02:13:31.791Z,91
2022-10-11T02:14:31.812Z,91
2022-10-11T02:15:31.772Z,91
2022-10-11T02:16:31.816Z,91
2022-10-11T02:17:31.799Z,91
2022-10-11T02:18:31.865Z,91
2022-10-11T02:19:31.788Z,91
2022-10-11T02:20:31.820Z,91
2022-10-11T02:21:31.794Z,91
2022-10-11T02:22:31.818Z,91
2022-10-11T02:23:31.759Z,91
2022-10-11T02:24:31.783Z,91
2022-10-11T02:25:31.796Z,91
2022-10-11T02:26:31.786Z,91
2022-10-11T02:27:31.803Z,90
2022-10-11T02:28:31.941Z,90
2022-10-11T02:29:31.840Z,90
2022-10-11T02:30:31.806Z,90
2022-10-11T02:31:31.774Z,90
2022-10-11T02:32:31.804Z,90
2022-10-11T02:33:31.826Z,90
2022-10-11T02:34:31.831Z,90
2022-10-11T02:35:31.767Z,90
2022-10-11T02:36:31.775Z,90
2022-10-11T02:37:31.823Z,90
2022-10-11T02:38:31.794Z,90
2022-10-11T02:39:31.781Z,90
2022-10-11T02:40:31.806Z,90
2022-10-11T02:41:31.782Z,90
2022-10-11T02:42:31.803Z,90
2022-10-11T02:43:31.767Z,90
2022-10-11T02:44:31.795Z,90
2022-10-11T02:45:31.834Z,90
2022-10-11T02:46:31.818Z,90
2022-10-11T02:47:31.772Z,90
2022-10-11T02:48:31.812Z,90
2022-10-11T02:49:31.820Z,90
2022-10-11T02:50:31.811Z,90
2022-10-11T02:51:31.758Z,90
2022-10-11T02:52:31.819Z,90
2022-10-11T02:53:31.955Z,90
2022-10-11T02:54:31.867Z,90
2022-10-11T02:55:31.807Z,90
2022-10-11T02:56:31.802Z,90
2022-10-11T02:57:31.783Z,90
2022-10-11T02:58:31.804Z,90
2022-10-11T02:59:31.782Z,90
2022-10-11T03:00:31.816Z,90
2022-10-11T03:01:31.803Z,90
2022-10-11T03:02:31.827Z,90
2022-10-11T03:03:31.807Z,91
2022-10-11T03:04:31.777Z,91
2022-10-11T03:05:31.771Z,91
2022-10-11T03:06:31.786Z,91
2022-10-11T03:07:31.818Z,91
2022-10-11T03:08:31.815Z,91
2022-10-11T03:09:31.765Z,91
2022-10-11T03:10:31.955Z,91
2022-10-11T03:11:31.936Z,92
2022-10-11T03:12:31.944Z,92
2022-10-11T03:13:31.807Z,92
2022-10-11T03:14:31.883Z,92
2022-10-11T03:15:31.823Z,92
2022-10-11T03:16:31.908Z,92
2022-10-11T03:17:36.566Z,92
2022-10-11T03:18:31.914Z,92
2022-10-11T03:19:31.944Z,92
2022-10-11T03:20:31.888Z,92
2022-10-11T03:21:31.954Z,92
2022-10-11T03:22:31.937Z,92
2022-10-11T03:23:31.960Z,92
2022-10-11T03:24:31.958Z,93
2022-10-11T03:25:31.816Z,93
2022-10-11T03:26:31.983Z,93
2022-10-11T03:27:31.932Z,93
2022-10-11T03:28:32.075Z,93
2022-10-11T03:29:31.880Z,93
2022-10-11T03:30:31.922Z,93
2022-10-11T03:31:31.796Z,93
2022-10-11T03:32:31.883Z,93
2022-10-11T03:33:31.912Z,93
2022-10-11T03:34:31.772Z,93
2022-10-11T03:35:31.815Z,93
2022-10-11T03:36:31.792Z,93
2022-10-11T03:37:31.777Z,94
2022-10-11T03:38:31.793Z,94
2022-10-11T03:39:31.800Z,94
2022-10-11T03:40:31.917Z,94
2022-10-11T03:41:31.960Z,94
2022-10-11T03:42:31.861Z,94
2022-10-11T03:43:31.800Z,94
2022-10-11T03:44:31.811Z,94
2022-10-11T03:45:31.772Z,94
2022-10-11T03:46:31.784Z,94
2022-10-11T03:47:31.805Z,94
2022-10-11T03:48:31.801Z,94
2022-10-11T03:49:31.781Z,94
2022-10-11T03:50:31.810Z,94
2022-10-11T03:51:31.785Z,94
2022-10-11T03:52:31.797Z,94
2022-10-11T03:53:31.802Z,94
2022-10-11T03:54:31.783Z,94
2022-10-11T03:55:31.870Z,94
2022-10-11T03:56:31.806Z,95
2022-10-11T03:57:31.802Z,94
2022-10-11T03:58:31.810Z,95
2022-10-11T03:59:31.783Z,95
2022-10-11T04:00:31.830Z,95
2022-10-11T04:01:31.888Z,95
2022-10-11T04:02:35.726Z,95
2022-10-11T04:03:31.799Z,95
2022-10-11T04:04:31.794Z,95
2022-10-11T04:05:31.866Z,95
2022-10-11T04:06:31.770Z,95
2022-10-11T04:07:31.805Z,95
2022-10-11T04:08:31.799Z,95
2022-10-11T04:09:31.787Z,95
2022-10-11T04:10:31.771Z,95
2022-10-11T04:11:31.792Z,95
2022-10-11T04:12:31.788Z,95
2022-10-11T04:13:31.801Z,95
2022-10-11T04:14:31.779Z,95
2022-10-11T04:15:31.799Z,95
2022-10-11T04:16:31.852Z,95
2022-10-11T04:17:31.814Z,95
2022-10-11T04:18:31.752Z,95
2022-10-11T04:19:31.777Z,95
2022-10-11T04:20:31.774Z,95
2022-10-11T04:21:31.796Z,95
2022-10-11T04:22:31.800Z,95
2022-10-11T04:23:31.804Z,94
2022-10-11T04:24:31.789Z,94
2022-10-11T04:25:31.787Z,94
2022-10-11T04:26:31.750Z,94
2022-10-11T04:27:31.812Z,94
2022-10-11T04:28:32.053Z,94
2022-10-11T04:29:32.708Z,94
2022-10-11T04:30:31.820Z,94
2022-10-11T04:31:31.771Z,94
2022-10-11T04:32:31.973Z,94
2022-10-11T04:33:31.762Z,94
2022-10-11T04:34:31.773Z,94
2022-10-11T04:35:31.790Z,94
2022-10-11T04:36:31.786Z,94
2022-10-11T04:37:31.781Z,94
2022-10-11T04:38:31.752Z,94
2022-10-11T04:39:31.868Z,94
2022-10-11T04:40:31.799Z,94
2022-10-11T04:41:31.801Z,94
2022-10-11T04:42:31.748Z,94
2022-10-11T04:43:31.800Z,94
2022-10-11T04:44:31.781Z,94
2022-10-11T04:45:31.870Z,94
2022-10-11T04:46:31.760Z,94
2022-10-11T04:47:31.799Z,94
2022-10-11T04:48:31.797Z,94
2022-10-11T04:49:31.837Z,94
2022-10-11T04:50:31.762Z,94
2022-10-11T04:51:31.801Z,94
2022-10-11T04:52:31.797Z,94
2022-10-11T04:53:31.795Z,94
2022-10-11T04:54:31.808Z,94
2022-10-11T04:55:31.783Z,94
2022-10-11T04:56:31.801Z,94
2022-10-11T04:57:31.765Z,94
2022-10-11T04:58:31.798Z,94
2022-10-11T04:59:31.792Z,94
2022-10-11T05:00:31.816Z,94
2022-10-11T05:01:31.767Z,93
2022-10-11T05:02:31.852Z,93
2022-10-11T05:03:31.829Z,93
2022-10-11T05:04:31.791Z,93
2022-10-11T05:05:31.768Z,93
2022-10-11T05:06:31.820Z,93
2022-10-11T05:07:31.781Z,93
2022-10-11T05:08:31.866Z,93
2022-10-11T05:09:31.789Z,93
2022-10-11T05:10:31.782Z,93
2022-10-11T05:11:31.764Z,93
2022-10-11T05:12:31.778Z,93
2022-10-11T05:13:31.859Z,93
2022-10-11T05:14:31.793Z,93
2022-10-11T05:15:31.785Z,93
2022-10-11T05:16:31.810Z,92
2022-10-11T05:17:31.805Z,92
2022-10-11T05:18:31.765Z,92
2022-10-11T05:19:31.792Z,92
2022-10-11T05:20:31.788Z,92
2022-10-11T05:21:31.832Z,92
2022-10-11T05:22:31.847Z,92
2022-10-11T05:23:31.768Z,92
2022-10-11T05:24:31.812Z,92
2022-10-11T05:25:31.762Z,92
2022-10-11T05:26:31.781Z,92
2022-10-11T05:27:31.767Z,92
2022-10-11T05:28:31.894Z,92
2022-10-11T05:29:31.750Z,92
2022-10-11T05:30:31.773Z,91
2022-10-11T05:31:31.765Z,91
2022-10-11T05:32:31.776Z,91
2022-10-11T05:33:31.730Z,91
2022-10-11T05:34:31.796Z,91
2022-10-11T05:35:31.962Z,91
2022-10-11T05:36:31.779Z,91
2022-10-11T05:37:31.748Z,91
2022-10-11T05:38:31.809Z,90
2022-10-11T05:39:31.813Z,90
2022-10-11T05:40:31.789Z,91
2022-10-11T05:41:31.757Z,90
2022-10-11T05:42:31.843Z,90
2022-10-11T05:43:31.863Z,90
2022-10-11T05:44:31.786Z,90
2022-10-11T05:45:31.780Z,90
2022-10-11T05:46:31.782Z,90
2022-10-11T05:47:31.802Z,91
2022-10-11T05:48:31.787Z,91
2022-10-11T05:49:31.749Z,91
2022-10-11T05:50:31.805Z,90
2022-10-11T05:51:31.771Z,90
2022-10-11T05:52:31.781Z,90
2022-10-11T05:53:31.785Z,90
2022-10-11T05:54:31.791Z,90
2022-10-11T05:55:31.762Z,90
2022-10-11T05:56:31.772Z,89
2022-10-11T05:57:31.802Z,89
2022-10-11T05:58:31.737Z,90
2022-10-11T05:59:31.768Z,89
2022-10-11T06:00:31.779Z,90
2022-10-11T06:01:31.855Z,90
2022-10-11T06:02:31.783Z,90
2022-10-11T06:03:31.771Z,90
2022-10-11T06:04:31.756Z,90
2022-10-11T06:05:31.805Z,89
2022-10-11T06:06:31.782Z,89
2022-10-11T06:07:31.775Z,89
2022-10-11T06:08:31.761Z,89
2022-10-11T06:09:31.791Z,89
2022-10-11T06:10:31.749Z,89
2022-10-11T06:11:31.780Z,89
2022-10-11T06:12:31.790Z,90
2022-10-11T06:13:31.791Z,89
2022-10-11T06:14:31.803Z,89
2022-10-11T06:15:31.710Z,89
2022-10-11T06:16:31.768Z,89
2022-10-11T06:17:31.741Z,89
2022-10-11T06:18:31.793Z,89
2022-10-11T06:19:31.763Z,89
2022-10-11T06:20:31.792Z,89
2022-10-11T06:21:31.780Z,89
2022-10-11T06:22:31.807Z,89
2022-10-11T06:23:31.796Z,89
2022-10-11T06:24:31.800Z,89
2022-10-11T06:25:31.770Z,89
2022-10-11T06:26:31.785Z,89
2022-10-11T06:27:31.769Z,89
2022-10-11T06:28:31.902Z,89
2022-10-11T06:29:31.783Z,89
2022-10-11T06:30:31.785Z,89
2022-10-11T06:31:31.840Z,89
2022-10-11T06:32:31.787Z,89
2022-10-11T06:33:31.774Z,88
2022-10-11T06:34:31.763Z,89
2022-10-11T06:35:31.773Z,89
2022-10-11T06:36:31.808Z,88
2022-10-11T06:37:31.789Z,88
2022-10-11T06:38:31.756Z,88
2022-10-11T06:39:31.775Z,88
2022-10-11T06:40:31.810Z,88
2022-10-11T06:41:31.838Z,88
2022-10-11T06:42:31.792Z,88
2022-10-11T06:43:31.786Z,87
2022-10-11T06:44:31.804Z,88
2022-10-11T06:45:31.774Z,87
2022-10-11T06:46:31.737Z,87
2022-10-11T06:47:31.774Z,87
2022-10-11T06:48:31.833Z,87
2022-10-11T06:49:31.774Z,87
2022-10-11T06:50:58.098Z,86
2022-10-11T06:51:32.658Z,86
2022-10-11T06:52:31.769Z,87
2022-10-11T06:53:31.745Z,87
2022-10-11T06:54:31.773Z,86
2022-10-11T06:55:31.749Z,86
2022-10-11T06:56:31.965Z,86
2022-10-11T06:57:31.916Z,86
2022-10-11T06:58:31.785Z,86
2022-10-11T06:59:31.762Z,86
2022-10-11T07:00:31.781Z,86
2022-10-11T07:01:31.897Z,85
2022-10-11T07:02:31.787Z,85
2022-10-11T07:03:31.798Z,85
2022-10-11T07:04:31.780Z,85
2022-10-11T07:05:31.795Z,85
2022-10-11T07:06:31.778Z,85
2022-10-11T07:07:31.900Z,85
2022-10-11T07:08:31.758Z,84
2022-10-11T07:09:31.793Z,83
2022-10-11T07:10:31.797Z,82
2022-10-11T07:11:32.937Z,82
2022-10-11T07:12:31.937Z,82
2022-10-11T07:13:31.734Z,81
2022-10-11T07:14:31.755Z,81
2022-10-11T07:15:31.770Z,81
2022-10-11T07:16:31.760Z,81
2022-10-11T07:17:31.789Z,81
2022-10-11T07:18:31.799Z,80
2022-10-11T07:19:31.747Z,80
2022-10-11T07:20:31.783Z,80
2022-10-11T07:21:31.768Z,80
2022-10-11T07:22:31.798Z,79
2022-10-11T07:23:31.787Z,79
2022-10-11T07:24:31.781Z,79
2022-10-11T07:25:31.789Z,78
2022-10-11T07:26:38.163Z,79
2022-10-11T07:27:31.826Z,79
2022-10-11T07:28:31.879Z,79
2022-10-11T07:29:31.792Z,79
2022-10-11T07:30:31.776Z,78
2022-10-11T07:31:31.762Z,78
2022-10-11T07:32:31.775Z,77
2022-10-11T07:33:31.763Z,77
2022-10-11T07:34:31.777Z,77
2022-10-11T07:35:31.755Z,77
2022-10-11T07:36:31.762Z,77
2022-10-11T07:37:31.793Z,77
2022-10-11T07:38:31.803Z,76
2022-10-11T07:39:31.733Z,76
2022-10-11T07:40:31.782Z,77
2022-10-11T07:41:31.918Z,76
2022-10-11T07:42:31.776Z,77
2022-10-11T07:43:31.739Z,76
2022-10-11T07:44:31.759Z,77
2022-10-11T07:45:31.794Z,76
2022-10-11T07:46:31.808Z,76
2022-10-11T07:47:31.746Z,75
2022-10-11T07:48:31.783Z,75
2022-10-11T07:49:31.823Z,75
2022-10-11T07:50:31.769Z,75
2022-10-11T07:51:31.953Z,74
2022-10-11T07:52:31.777Z,74
2022-10-11T07:53:31.848Z,74
2022-10-11T07:54:31.753Z,74
2022-10-11T07:55:32.081Z,74
2022-10-11T07:56:31.807Z,74
2022-10-11T07:57:31.775Z,73
2022-10-11T07:58:31.735Z,73
2022-10-11T07:59:31.763Z,72
2022-10-11T08:00:31.793Z,72
2022-10-11T08:01:31.932Z,72
2022-10-11T08:02:31.726Z,72
2022-10-11T08:03:31.790Z,72
2022-10-11T08:04:31.766Z,73
2022-10-11T08:05:31.777Z,73
2022-10-11T08:06:31.839Z,74
2022-10-11T08:07:31.756Z,73
2022-10-11T08:08:31.773Z,72
2022-10-11T08:09:31.745Z,72
2022-10-11T08:10:31.723Z,73
2022-10-11T08:11:32.131Z,74
2022-10-11T08:12:31.792Z,74
2022-10-11T08:13:31.850Z,74
2022-10-11T08:14:31.739Z,75
2022-10-11T08:15:31.775Z,74
2022-10-11T08:16:31.752Z,73
2022-10-11T08:17:31.876Z,73
2022-10-11T08:18:31.767Z,73
2022-10-11T08:19:31.803Z,74
2022-10-11T08:20:31.815Z,73
2022-10-11T08:21:31.775Z,73
2022-10-11T08:22:31.794Z,74
2022-10-11T08:23:31.893Z,74
2022-10-11T08:24:35.865Z,73
2022-10-11T08:25:31.774Z,73
2022-10-11T08:26:31.766Z,73
2022-10-11T08:27:32.036Z,74
2022-10-11T08:28:31.892Z,73
2022-10-11T08:29:31.830Z,74
2022-10-11T08:30:34.803Z,73
2022-10-11T08:31:32.036Z,73
2022-10-11T08:32:31.773Z,72
2022-10-11T08:33:31.794Z,73
2022-10-11T08:34:31.753Z,73
2022-10-11T08:35:32.409Z,73
2022-10-11T08:36:31.768Z,73
2022-10-11T08:37:31.742Z,73
2022-10-11T08:38:31.722Z,73
2022-10-11T08:39:32.267Z,73
2022-10-11T08:40:35.120Z,72
2022-10-11T08:41:31.789Z,72
2022-10-11T08:42:32.266Z,72
2022-10-11T08:43:31.941Z,72
2022-10-11T08:45:09.097Z,73
2022-10-11T08:45:32.119Z,73
2022-10-11T08:46:31.770Z,73
2022-10-11T08:47:32.131Z,73
2022-10-11T08:48:34.860Z,73
2022-10-11T08:49:34.884Z,73
2022-10-11T08:50:32.777Z,74
2022-10-11T08:51:47.765Z,74
2022-10-11T08:52:38.718Z,74
2022-10-11T08:53:31.851Z,75
2022-10-11T08:54:32.498Z,74
2022-10-11T08:55:32.083Z,74
2022-10-11T08:56:39.319Z,75
2022-10-11T08:57:33.186Z,75
2022-10-11T08:58:47.560Z,75
2022-10-11T08:59:31.834Z,74
2022-10-11T09:00:35.871Z,73
2022-10-11T09:01:39.125Z,73
2022-10-11T09:03:06.310Z,73
2022-10-11T09:03:34.920Z,73
2022-10-11T09:04:31.817Z,73
2022-10-11T09:05:32.100Z,73
2022-10-11T09:06:34.182Z,72
2022-10-11T09:07:32.318Z,73
2022-10-11T09:08:32.815Z,73
2022-10-11T09:09:31.818Z,73
2022-10-11T09:10:33.170Z,73
2022-10-11T09:11:32.867Z,73
2022-10-11T09:12:33.504Z,73
2022-10-11T09:13:31.834Z,72
2022-10-11T09:14:34.093Z,72
2022-10-11T09:15:35.131Z,71
2022-10-11T09:16:31.866Z,71
2022-10-11T09:17:31.782Z,71
2022-10-11T09:18:31.859Z,70
2022-10-11T09:19:31.769Z,70
2022-10-11T09:20:31.751Z,71
2022-10-11T09:21:31.781Z,71
2022-10-11T09:22:31.762Z,70
2022-10-11T09:23:31.757Z,69
2022-10-11T09:24:31.840Z,69
2022-10-11T09:25:31.775Z,70
2022-10-11T09:26:31.868Z,69
2022-10-11T09:27:50.286Z,69
2022-10-11T09:28:31.863Z,69
2022-10-11T09:29:31.820Z,69
2022-10-11T09:30:31.884Z,69
2022-10-11T09:31:33.056Z,68
2022-10-11T09:32:31.744Z,69
2022-10-11T09:33:31.826Z,69
2022-10-11T09:34:31.751Z,68
2022-10-11T09:35:31.752Z,68
2022-10-11T09:36:31.727Z,67
2022-10-11T09:37:31.797Z,68
2022-10-11T09:38:31.775Z,69
2022-10-11T09:39:31.806Z,68
2022-10-11T09:40:31.789Z,68
2022-10-11T09:41:31.761Z,68
2022-10-11T09:42:31.767Z,67
2022-10-11T09:43:31.928Z,67
2022-10-11T09:44:31.726Z,67
2022-10-11T09:45:31.869Z,67
2022-10-11T09:46:31.951Z,67
2022-10-11T09:47:31.858Z,67
2022-10-11T09:48:31.731Z,67
2022-10-11T09:49:31.751Z,67
2022-10-11T09:50:31.859Z,68
2022-10-11T09:51:31.786Z,68
2022-10-11T09:52:31.750Z,68
2022-10-11T09:53:31.886Z,67
2022-10-11T09:54:31.759Z,67
2022-10-11T09:55:31.822Z,67
2022-10-11T09:56:31.843Z,67
2022-10-11T09:57:31.756Z,68
2022-10-11T09:58:31.808Z,68
2022-10-11T09:59:31.828Z,67
2022-10-11T10:00:31.789Z,67
2022-10-11T10:01:31.850Z,67
2022-10-11T10:02:31.764Z,67
2022-10-11T10:03:31.760Z,66
2022-10-11T10:04:31.762Z,67
2022-10-11T10:05:31.712Z,67
2022-10-11T10:06:31.842Z,67
2022-10-11T10:07:31.782Z,66
2022-10-11T10:08:32.805Z,67
2022-10-11T10:09:31.731Z,66
2022-10-11T10:10:31.797Z,67
2022-10-11T10:11:31.743Z,67
2022-10-11T10:12:31.756Z,66
2022-10-11T10:13:31.795Z,67
2022-10-11T10:14:31.751Z,67
2022-10-11T10:15:32.914Z,67
2022-10-11T10:16:31.774Z,67
2022-10-11T10:17:31.736Z,67
2022-10-11T10:18:31.786Z,67
2022-10-11T10:19:31.764Z,67
2022-10-11T10:20:31.751Z,67
2022-10-11T10:21:32.170Z,67
2022-10-11T10:22:31.762Z,67
2022-10-11T10:23:31.759Z,66
2022-10-11T10:24:31.760Z,65
2022-10-11T10:25:31.827Z,65
2022-10-11T10:26:31.768Z,66
2022-10-11T10:27:32.809Z,65
2022-10-11T10:28:31.884Z,66
2022-10-11T10:29:31.741Z,65
2022-10-11T10:30:35.386Z,65
2022-10-11T10:31:44.174Z,65
2022-10-11T10:32:31.816Z,64
2022-10-11T10:33:31.720Z,65
2022-10-11T10:34:31.756Z,64
2022-10-11T10:35:31.761Z,64
2022-10-11T10:36:31.766Z,63
2022-10-11T10:37:31.741Z,64
2022-10-11T10:38:31.935Z,64
2022-10-11T10:39:31.779Z,64
2022-10-11T10:40:31.768Z,64
2022-10-11T10:41:31.717Z,64
2022-10-11T10:42:31.784Z,64
2022-10-11T10:43:31.758Z,63
2022-10-11T10:44:31.785Z,63
2022-10-11T10:45:31.746Z,64
2022-10-11T10:46:31.741Z,63
2022-10-11T10:47:31.765Z,62
2022-10-11T10:48:48.158Z,62
2022-10-11T10:49:53.299Z,62
2022-10-11T10:50:31.823Z,62
2022-10-11T10:51:31.763Z,62
2022-10-11T10:52:31.772Z,62
2022-10-11T10:53:31.758Z,62
2022-10-11T10:54:31.737Z,61
2022-10-11T10:55:31.824Z,62
2022-10-11T10:56:31.760Z,61
2022-10-11T10:57:31.752Z,61
2022-10-11T10:58:31.709Z,61
2022-10-11T10:59:31.761Z,61
2022-10-11T11:00:31.742Z,61
2022-10-11T11:01:32.169Z,61
2022-10-11T11:02:40.727Z,61
2022-10-11T11:03:31.692Z,62
2022-10-11T11:04:31.749Z,61
2022-10-11T11:05:31.802Z,61
2022-10-11T11:06:35.628Z,62
2022-10-11T11:07:31.740Z,61
2022-10-11T11:08:31.744Z,61
2022-10-11T11:09:31.714Z,61
2022-10-11T11:10:31.792Z,61
2022-10-11T11:11:31.779Z,61
2022-10-11T11:12:31.786Z,60
2022-10-11T11:13:31.732Z,61
2022-10-11T11:14:31.739Z,60
2022-10-11T11:15:33.165Z,60
2022-10-11T11:16:31.748Z,60
2022-10-11T11:17:31.864Z,61
2022-10-11T11:18:31.757Z,61
2022-10-11T11:19:31.761Z,61
2022-10-11T11:20:31.895Z,61
2022-10-11T11:21:32.794Z,60
2022-10-11T11:22:32.837Z,60
2022-10-11T11:23:31.768Z,60
2022-10-11T11:24:31.792Z,59
2022-10-11T11:25:31.726Z,59
2022-10-11T11:26:31.755Z,60
2022-10-11T11:27:31.760Z,59
2022-10-11T11:28:31.776Z,60
2022-10-11T11:29:31.749Z,59
2022-10-11T11:30:31.761Z,59
2022-10-11T11:31:31.789Z,59
2022-10-11T11:32:31.756Z,60
2022-10-11T11:33:31.705Z,60
2022-10-11T11:34:31.757Z,60
2022-10-11T11:35:31.769Z,60
2022-10-11T11:36:31.765Z,59
2022-10-11T11:37:31.758Z,59
2022-10-11T11:38:31.743Z,59
2022-10-11T11:39:31.754Z,59
2022-10-11T11:40:31.750Z,60
2022-10-11T11:41:31.709Z,60
2022-10-11T11:42:31.755Z,60
2022-10-11T11:43:31.755Z,59
2022-10-11T11:44:31.762Z,59
2022-10-11T11:45:31.738Z,59
2022-10-11T11:46:31.754Z,58
2022-10-11T11:47:31.734Z,58
2022-10-11T11:48:31.753Z,57
2022-10-11T11:49:31.962Z,57
2022-10-11T11:50:34.276Z,57
2022-10-11T11:51:31.858Z,58
2022-10-11T11:52:31.728Z,58
2022-10-11T11:53:31.824Z,58
2022-10-11T11:54:31.763Z,58
2022-10-11T11:55:31.754Z,58
2022-10-11T11:56:31.741Z,58
2022-10-11T11:57:31.783Z,58
2022-10-11T11:58:31.721Z,58
2022-10-11T11:59:31.741Z,58
2022-10-11T12:00:31.728Z,58
2022-10-11T12:01:31.812Z,58
2022-10-11T12:02:31.733Z,59
2022-10-11T12:03:31.768Z,59
2022-10-11T12:04:31.724Z,59
2022-10-11T12:05:31.741Z,60
2022-10-11T12:06:31.701Z,59
2022-10-11T12:07:31.747Z,58
2022-10-11T12:08:31.742Z,59
2022-10-11T12:09:31.757Z,59
2022-10-11T12:10:31.742Z,59
2022-10-11T12:11:35.351Z,58
2022-10-11T12:12:31.740Z,58
2022-10-11T12:13:32.658Z,59
2022-10-11T12:14:31.733Z,59
2022-10-11T12:15:31.745Z,59
2022-10-11T12:16:31.728Z,58
2022-10-11T12:17:31.816Z,58
2022-10-11T12:18:31.734Z,58
2022-10-11T12:19:31.740Z,58
2022-10-11T12:20:31.773Z,58
2022-10-11T12:21:31.764Z,58
2022-10-11T12:22:31.748Z,58
2022-10-11T12:23:31.938Z,58
2022-10-11T12:24:31.735Z,58
2022-10-11T12:25:31.734Z,58
2022-10-11T12:26:31.734Z,58
2022-10-11T12:27:31.768Z,58
2022-10-11T12:28:31.820Z,58
2022-10-11T12:29:31.762Z,57
2022-10-11T12:30:31.697Z,57
2022-10-11T12:31:31.768Z,57
2022-10-11T12:32:31.771Z,58
2022-10-11T12:33:31.832Z,58
2022-10-11T12:34:31.769Z,57
2022-10-11T12:35:31.743Z,57
2022-10-11T12:36:31.758Z,58
2022-10-11T12:37:31.773Z,57
2022-10-11T12:38:31.727Z,57
2022-10-11T12:39:31.735Z,57
2022-10-11T12:40:31.803Z,57
2022-10-11T12:41:31.760Z,57
2022-10-11T12:42:31.697Z,57
2022-10-11T12:43:31.937Z,58
2022-10-11T12:44:31.730Z,58
2022-10-11T12:45:31.789Z,57
2022-10-11T12:46:31.762Z,58
2022-10-11T12:47:31.750Z,57
2022-10-11T12:48:35.916Z,58
2022-10-11T12:49:31.763Z,57
2022-10-11T12:50:31.737Z,57
2022-10-11T12:51:32.821Z,57
2022-10-11T12:52:31.766Z,57
2022-10-11T12:53:31.760Z,57
2022-10-11T12:54:36.192Z,57
2022-10-11T12:55:32.803Z,58
2022-10-11T12:56:45.051Z,59
2022-10-11T12:57:49.053Z,58
2022-10-11T12:58:53.060Z,58
2022-10-11T12:59:57.042Z,58
2022-10-11T13:01:01.100Z,58
2022-10-11T13:02:05.043Z,58
2022-10-11T13:03:09.050Z,58
2022-10-11T13:04:13.214Z,58
2022-10-11T13:05:17.016Z,58
2022-10-11T13:06:21.090Z,58
2022-10-11T13:07:25.058Z,58
2022-10-11T13:08:29.142Z,58
2022-10-11T13:09:31.724Z,59
2022-10-11T13:10:31.751Z,58
2022-10-11T13:11:31.777Z,58
2022-10-11T13:12:32.771Z,58
2022-10-11T13:13:31.725Z,59
2022-10-11T13:14:31.750Z,59
2022-10-11T13:15:31.750Z,59
2022-10-11T13:16:31.729Z,59
2022-10-11T13:17:35.906Z,59
2022-10-11T13:18:31.802Z,58
2022-10-11T13:19:31.869Z,56
2022-10-11T13:20:31.693Z,55
2022-10-11T13:21:32.327Z,55
2022-10-11T13:22:31.770Z,55
2022-10-11T13:23:31.806Z,56
2022-10-11T13:24:31.757Z,56
2022-10-11T13:25:31.754Z,56
2022-10-11T13:26:31.727Z,56
2022-10-11T13:27:31.909Z,56
2022-10-11T13:28:35.569Z,56
2022-10-11T13:29:31.754Z,56
2022-10-11T13:30:31.795Z,56
2022-10-11T13:31:31.754Z,56
2022-10-11T13:32:31.757Z,57
2022-10-11T13:33:31.748Z,57
2022-10-11T13:34:35.116Z,56
2022-10-11T13:35:31.755Z,57
2022-10-11T13:36:31.707Z,57
2022-10-11T13:37:31.765Z,57
2022-10-11T13:38:31.767Z,57
2022-10-11T13:39:31.832Z,57
2022-10-11T13:40:31.709Z,58
2022-10-11T13:41:31.748Z,58
2022-10-11T13:42:31.876Z,58
2022-10-11T13:43:31.738Z,57
2022-10-11T13:44:31.760Z,57
2022-10-11T13:45:31.746Z,56
2022-10-11T13:46:31.736Z,57
2022-10-11T13:47:31.740Z,57
2022-10-11T13:48:32.247Z,57
2022-10-11T13:49:31.733Z,57
2022-10-11T13:50:31.749Z,57
2022-10-11T13:51:31.840Z,57
2022-10-11T13:52:31.709Z,57
2022-10-11T13:53:31.767Z,58
2022-10-11T13:54:31.726Z,57
2022-10-11T13:55:31.850Z,57
2022-10-11T13:56:31.691Z,56
2022-10-11T13:57:31.747Z,56
2022-10-11T13:58:31.759Z,57
2022-10-11T13:59:31.695Z,57
2022-10-11T14:00:31.754Z,57
2022-10-11T14:01:31.753Z,57
2022-10-11T14:02:31.780Z,57
2022-10-11T14:03:31.760Z,57
2022-10-11T14:04:31.701Z,57
2022-10-11T14:05:31.726Z,57
2022-10-11T14:06:31.910Z,57
2022-10-11T14:07:31.855Z,57
2022-10-11T14:08:31.738Z,57
2022-10-11T14:09:31.749Z,57
2022-10-11T14:10:31.721Z,57
2022-10-11T14:11:31.905Z,57
2022-10-11T14:12:31.714Z,57
2022-10-11T14:13:31.747Z,56
2022-10-11T14:14:31.764Z,56
2022-10-11T14:15:31.713Z,56
2022-10-11T14:16:31.705Z,56